createdAt,value
2022-09-17T00:01:04.000Z,0
2022-09-17T00:02:20.000Z,0
2022-09-17T00:03:36.000Z,0
2022-09-17T00:04:53.000Z,0
2022-09-17T00:06:09.000Z,0
2022-09-17T00:07:25.000Z,0
2022-09-17T00:08:41.707Z,0
2022-09-17T00:09:57.000Z,0
2022-09-17T00:11:13.000Z,0
2022-09-17T00:12:29.000Z,0
2022-09-17T00:13:45.000Z,0
2022-09-17T00:15:01.000Z,0
2022-09-17T00:16:17.000Z,0
2022-09-17T00:17:33.741Z,0
2022-09-17T00:18:49.886Z,0
2022-09-17T00:20:06.048Z,0
2022-09-17T00:21:21.000Z,0
2022-09-17T00:22:38.000Z,0
2022-09-17T00:23:54.000Z,0
2022-09-17T00:25:10.000Z,0
2022-09-17T00:26:26.756Z,0
2022-09-17T00:27:42.000Z,0
2022-09-17T00:28:58.000Z,0
2022-09-17T00:30:13.000Z,0
2022-09-17T00:31:30.000Z,0
2022-09-17T00:32:46.504Z,0
2022-09-17T00:34:02.000Z,0
2022-09-17T00:35:18.000Z,0
2022-09-17T00:36:34.000Z,0
2022-09-17T00:37:50.000Z,0
2022-09-17T00:39:07.000Z,0
2022-09-17T00:40:23.000Z,0
2022-09-17T00:41:39.000Z,0
2022-09-17T00:42:55.000Z,0
2022-09-17T00:44:11.000Z,0
2022-09-17T00:45:27.000Z,0
2022-09-17T00:46:43.135Z,0
2022-09-17T00:47:59.000Z,0
2022-09-17T00:49:15.000Z,0
2022-09-17T00:50:31.000Z,0
2022-09-17T00:51:47.000Z,0
2022-09-17T00:53:03.000Z,0
2022-09-17T00:54:19.000Z,0
2022-09-17T00:55:35.000Z,0
2022-09-17T00:56:52.291Z,0
2022-09-17T00:58:08.000Z,0
2022-09-17T00:59:24.000Z,0
2022-09-17T01:00:40.000Z,0
2022-09-17T01:01:56.000Z,0
2022-09-17T01:03:11.000Z,0
2022-09-17T01:04:27.000Z,0
2022-09-17T01:05:44.000Z,0
2022-09-17T01:07:00.000Z,0
2022-09-17T01:08:16.000Z,0
2022-09-17T01:09:32.000Z,0
2022-09-17T01:10:48.000Z,0
2022-09-17T01:12:04.000Z,0
2022-09-17T01:13:21.192Z,0
2022-09-17T01:14:37.000Z,0
2022-09-17T01:15:53.000Z,0
2022-09-17T01:17:09.000Z,0
2022-09-17T01:18:25.000Z,0
2022-09-17T01:19:40.000Z,0
2022-09-17T01:20:56.000Z,0
2022-09-17T01:22:12.000Z,0
2022-09-17T01:23:29.000Z,0
2022-09-17T01:24:45.512Z,0
2022-09-17T01:26:01.000Z,0
2022-09-17T01:27:17.000Z,0
2022-09-17T01:28:33.955Z,0
2022-09-17T01:29:49.000Z,0
2022-09-17T01:31:06.000Z,0
2022-09-17T01:32:22.000Z,0
2022-09-17T01:33:38.000Z,0
2022-09-17T01:34:54.000Z,0
2022-09-17T01:36:09.000Z,0
2022-09-17T01:37:25.000Z,0
2022-09-17T01:38:41.000Z,0
2022-09-17T01:39:58.285Z,0
2022-09-17T01:41:14.000Z,0
2022-09-17T01:42:30.000Z,0
2022-09-17T01:43:46.722Z,0
2022-09-17T01:45:02.858Z,0
2022-09-17T01:46:19.012Z,0
2022-09-17T01:47:34.000Z,0
2022-09-17T01:48:51.000Z,0
2022-09-17T01:50:07.000Z,0
2022-09-17T01:51:23.000Z,0
2022-09-17T01:52:38.000Z,0
2022-09-17T01:53:54.000Z,0
2022-09-17T01:55:11.042Z,0
2022-09-17T01:56:27.193Z,0
2022-09-17T01:57:43.000Z,0
2022-09-17T01:58:59.000Z,0
2022-09-17T02:00:15.000Z,0
2022-09-17T02:01:31.000Z,0
2022-09-17T02:02:47.000Z,0
2022-09-17T02:04:03.000Z,0
2022-09-17T02:05:19.000Z,0
2022-09-17T02:06:36.000Z,0
2022-09-17T02:07:52.000Z,0
2022-09-17T02:09:07.000Z,0
2022-09-17T02:10:23.000Z,0
2022-09-17T02:11:39.000Z,0
2022-09-17T02:12:55.000Z,0
2022-09-17T02:14:12.000Z,0
2022-09-17T02:15:28.000Z,0
2022-09-17T02:16:44.000Z,0
2022-09-17T02:18:00.000Z,0
2022-09-17T02:19:16.816Z,0
2022-09-17T02:20:32.000Z,0
2022-09-17T02:21:48.000Z,0
2022-09-17T02:23:05.000Z,0
2022-09-17T02:24:21.000Z,0
2022-09-17T02:25:36.000Z,0
2022-09-17T02:26:52.000Z,0
2022-09-17T02:28:08.850Z,0
2022-09-17T02:29:24.000Z,0
2022-09-17T02:30:40.000Z,0
2022-09-17T02:31:57.000Z,0
2022-09-17T02:33:12.454Z,0
2022-09-17T02:34:28.612Z,0
2022-09-17T02:35:44.000Z,0
2022-09-17T02:37:00.000Z,0
2022-09-17T02:38:16.000Z,0
2022-09-17T02:39:32.000Z,0
2022-09-17T02:40:49.000Z,0
2022-09-17T02:42:05.000Z,0
2022-09-17T02:43:21.000Z,0
2022-09-17T02:44:37.000Z,0
2022-09-17T02:45:53.000Z,0
2022-09-17T02:47:09.000Z,0
2022-09-17T02:48:25.000Z,0
2022-09-17T02:49:41.359Z,0
2022-09-17T02:50:57.000Z,0
2022-09-17T02:52:13.000Z,0
2022-09-17T02:53:29.000Z,0
2022-09-17T02:54:45.953Z,0
2022-09-17T02:56:01.000Z,0
2022-09-17T02:57:18.000Z,0
2022-09-17T02:58:34.000Z,0
2022-09-17T02:59:50.000Z,0
2022-09-17T03:01:06.000Z,0
2022-09-17T03:02:22.000Z,0
2022-09-17T03:03:38.000Z,0
2022-09-17T03:04:54.000Z,0
2022-09-17T03:06:10.000Z,0
2022-09-17T03:07:26.000Z,0
2022-09-17T03:08:42.000Z,0
2022-09-17T03:09:58.000Z,0
2022-09-17T03:11:14.000Z,0
2022-09-17T03:12:30.000Z,0
2022-09-17T03:13:46.000Z,0
2022-09-17T03:15:03.000Z,0
2022-09-17T03:16:19.000Z,0
2022-09-17T03:17:35.000Z,0
2022-09-17T03:18:51.000Z,0
2022-09-17T03:20:07.000Z,0
2022-09-17T03:21:24.010Z,0
2022-09-17T03:22:39.170Z,0
2022-09-17T03:23:55.000Z,0
2022-09-17T03:25:11.000Z,0
2022-09-17T03:26:27.000Z,0
2022-09-17T03:27:43.765Z,0
2022-09-17T03:28:59.000Z,0
2022-09-17T03:30:15.000Z,0
2022-09-17T03:31:31.000Z,0
2022-09-17T03:32:48.000Z,0
2022-09-17T03:34:04.000Z,0
2022-09-17T03:35:20.000Z,0
2022-09-17T03:36:36.768Z,0
2022-09-17T03:37:52.915Z,0
2022-09-17T03:39:07.000Z,0
2022-09-17T03:40:24.220Z,0
2022-09-17T03:41:40.000Z,0
2022-09-17T03:42:56.000Z,0
2022-09-17T03:44:12.000Z,0
2022-09-17T03:45:28.000Z,0
2022-09-17T03:46:44.000Z,0
2022-09-17T03:48:00.000Z,0
2022-09-17T03:49:17.000Z,0
2022-09-17T03:50:33.000Z,0
2022-09-17T03:51:49.000Z,0
2022-09-17T03:53:05.000Z,0
2022-09-17T03:54:21.824Z,0
2022-09-17T03:55:36.000Z,0
2022-09-17T03:56:53.128Z,0
2022-09-17T03:58:09.000Z,0
2022-09-17T03:59:25.000Z,0
2022-09-17T04:00:41.000Z,0
2022-09-17T04:01:57.000Z,0
2022-09-17T04:03:13.857Z,0
2022-09-17T04:04:29.000Z,0
2022-09-17T04:05:45.000Z,0
2022-09-17T04:07:02.000Z,0
2022-09-17T04:08:18.439Z,0
2022-09-17T04:09:34.000Z,0
2022-09-17T04:10:50.727Z,0
2022-09-17T04:12:05.000Z,0
2022-09-17T04:13:21.000Z,0
2022-09-17T04:14:37.000Z,0
2022-09-17T04:15:54.351Z,0
2022-09-17T04:17:10.000Z,0
2022-09-17T04:18:26.000Z,0
2022-09-17T04:19:42.000Z,0
2022-09-17T04:20:58.916Z,0
2022-09-17T04:22:14.000Z,0
2022-09-17T04:23:30.000Z,0
2022-09-17T04:24:47.000Z,0
2022-09-17T04:26:03.000Z,0
2022-09-17T04:27:19.000Z,0
2022-09-17T04:28:34.000Z,0
2022-09-17T04:29:50.000Z,0
2022-09-17T04:31:06.000Z,0
2022-09-17T04:32:23.000Z,0
2022-09-17T04:33:39.000Z,4
2022-09-17T04:34:55.000Z,0
2022-09-17T04:36:11.000Z,4
2022-09-17T04:37:27.000Z,4
2022-09-17T04:38:43.000Z,8
2022-09-17T04:40:00.128Z,4
2022-09-17T04:41:16.000Z,4
2022-09-17T04:42:32.000Z,8
2022-09-17T04:43:48.000Z,12
2022-09-17T04:45:03.000Z,12
2022-09-17T04:46:19.000Z,16
2022-09-17T04:47:35.000Z,16
2022-09-17T04:48:51.000Z,20
2022-09-17T04:50:08.000Z,20
2022-09-17T04:51:24.000Z,24
2022-09-17T04:52:40.000Z,32
2022-09-17T04:53:56.000Z,36
2022-09-17T04:55:12.000Z,36
2022-09-17T04:56:28.000Z,40
2022-09-17T04:57:44.000Z,48
2022-09-17T04:59:01.000Z,52
2022-09-17T05:00:17.000Z,60
2022-09-17T05:01:32.659Z,68
2022-09-17T05:02:48.000Z,72
2022-09-17T05:04:04.947Z,80
2022-09-17T05:05:20.000Z,84
2022-09-17T05:06:37.000Z,88
2022-09-17T05:07:53.000Z,92
2022-09-17T05:09:09.000Z,100
2022-09-17T05:10:25.000Z,112
2022-09-17T05:11:41.000Z,124
2022-09-17T05:12:57.000Z,136
2022-09-17T05:14:13.000Z,152
2022-09-17T05:15:30.000Z,156
2022-09-17T05:16:46.000Z,168
2022-09-17T05:18:01.000Z,176
2022-09-17T05:19:17.000Z,184
2022-09-17T05:20:33.000Z,188
2022-09-17T05:21:49.000Z,196
2022-09-17T05:23:05.942Z,204
2022-09-17T05:24:22.000Z,220
2022-09-17T05:25:38.455Z,236
2022-09-17T05:26:54.000Z,244
2022-09-17T05:28:10.000Z,248
2022-09-17T05:29:26.000Z,256
2022-09-17T05:30:42.000Z,260
2022-09-17T05:31:58.000Z,260
2022-09-17T05:33:15.000Z,260
2022-09-17T05:34:30.000Z,252
2022-09-17T05:35:46.000Z,256
2022-09-17T05:37:02.000Z,268
2022-09-17T05:38:18.000Z,272
2022-09-17T05:39:34.000Z,288
2022-09-17T05:40:51.000Z,320
2022-09-17T05:42:07.000Z,284
2022-09-17T05:43:23.000Z,280
2022-09-17T05:44:39.686Z,284
2022-09-17T05:45:55.000Z,292
2022-09-17T05:47:11.000Z,312
2022-09-17T05:48:27.000Z,332
2022-09-17T05:49:44.000Z,328
2022-09-17T05:50:59.000Z,332
2022-09-17T05:52:15.570Z,336
2022-09-17T05:53:31.718Z,352
2022-09-17T05:54:47.000Z,364
2022-09-17T05:56:03.000Z,376
2022-09-17T05:57:20.156Z,400
2022-09-17T05:58:36.000Z,440
2022-09-17T05:59:52.000Z,440
2022-09-17T06:01:08.000Z,440
2022-09-17T06:02:24.738Z,424
2022-09-17T06:03:40.000Z,428
2022-09-17T06:04:56.000Z,436
2022-09-17T06:06:12.000Z,436
2022-09-17T06:07:28.000Z,444
2022-09-17T06:08:44.000Z,448
2022-09-17T06:10:00.000Z,452
2022-09-17T06:11:16.000Z,456
2022-09-17T06:12:32.000Z,464
2022-09-17T06:13:48.000Z,472
2022-09-17T06:15:04.000Z,476
2022-09-17T06:16:21.000Z,476
2022-09-17T06:17:37.000Z,484
2022-09-17T06:18:53.000Z,492
2022-09-17T06:20:09.000Z,500
2022-09-17T06:21:25.000Z,512
2022-09-17T06:22:41.000Z,516
2022-09-17T06:23:57.000Z,516
2022-09-17T06:25:13.413Z,520
2022-09-17T06:26:29.000Z,528
2022-09-17T06:27:45.000Z,544
2022-09-17T06:29:01.000Z,560
2022-09-17T06:30:17.000Z,588
2022-09-17T06:31:33.000Z,616
2022-09-17T06:32:50.000Z,640
2022-09-17T06:34:06.000Z,672
2022-09-17T06:35:22.000Z,708
2022-09-17T06:36:38.000Z,736
2022-09-17T06:37:54.000Z,764
2022-09-17T06:39:10.000Z,784
2022-09-17T06:40:25.000Z,800
2022-09-17T06:41:42.000Z,808
2022-09-17T06:42:58.000Z,816
2022-09-17T06:44:14.000Z,812
2022-09-17T06:45:30.789Z,808
2022-09-17T06:46:46.924Z,804
2022-09-17T06:48:01.000Z,808
2022-09-17T06:49:18.000Z,800
2022-09-17T06:50:34.000Z,788
2022-09-17T06:51:50.000Z,780
2022-09-17T06:53:06.000Z,788
2022-09-17T06:54:22.000Z,796
2022-09-17T06:55:38.000Z,812
2022-09-17T06:56:54.000Z,848
2022-09-17T06:58:11.276Z,908
2022-09-17T06:59:27.000Z,972
2022-09-17T07:00:43.571Z,996
2022-09-17T07:01:59.000Z,1000
2022-09-17T07:03:15.863Z,1016
2022-09-17T07:04:30.000Z,1076
2022-09-17T07:05:47.164Z,1128
2022-09-17T07:07:03.310Z,1156
2022-09-17T07:08:19.000Z,968
2022-09-17T07:09:35.000Z,1112
2022-09-17T07:10:51.000Z,1016
2022-09-17T07:12:07.895Z,972
2022-09-17T07:13:23.000Z,1340
2022-09-17T07:14:39.000Z,1456
2022-09-17T07:15:56.336Z,1548
2022-09-17T07:17:12.000Z,1244
2022-09-17T07:18:28.632Z,960
2022-09-17T07:19:44.000Z,1100
2022-09-17T07:20:59.000Z,1624
2022-09-17T07:22:15.000Z,1580
2022-09-17T07:23:32.000Z,1528
2022-09-17T07:24:48.381Z,1404
2022-09-17T07:26:04.000Z,1232
2022-09-17T07:27:20.000Z,1100
2022-09-17T07:28:36.000Z,1068
2022-09-17T07:29:52.000Z,1160
2022-09-17T07:31:09.117Z,1236
2022-09-17T07:32:25.000Z,1244
2022-09-17T07:33:41.000Z,1288
2022-09-17T07:34:57.000Z,1360
2022-09-17T07:36:13.702Z,1412
2022-09-17T07:37:28.873Z,1432
2022-09-17T07:38:44.000Z,1484
2022-09-17T07:40:00.000Z,1500
2022-09-17T07:41:17.305Z,1600
2022-09-17T07:42:33.000Z,2008
2022-09-17T07:43:49.000Z,2004
2022-09-17T07:45:05.748Z,2208
2022-09-17T07:46:21.000Z,2544
2022-09-17T07:47:37.000Z,2468
2022-09-17T07:48:54.187Z,2324
2022-09-17T07:50:10.000Z,2364
2022-09-17T07:51:26.000Z,2416
2022-09-17T07:52:42.000Z,2580
2022-09-17T07:53:57.000Z,2480
2022-09-17T07:55:13.000Z,2692
2022-09-17T07:56:30.089Z,2740
2022-09-17T07:57:46.000Z,2616
2022-09-17T07:59:02.000Z,2520
2022-09-17T08:00:18.000Z,2748
2022-09-17T08:01:34.000Z,2484
2022-09-17T08:02:50.000Z,2424
2022-09-17T08:04:06.978Z,2408
2022-09-17T08:05:23.111Z,2388
2022-09-17T08:06:39.000Z,2404
2022-09-17T08:07:55.000Z,2456
2022-09-17T08:09:11.000Z,2500
2022-09-17T08:10:26.713Z,2524
2022-09-17T08:11:42.000Z,2500
2022-09-17T08:12:58.000Z,2456
2022-09-17T08:14:14.000Z,2408
2022-09-17T08:15:31.000Z,2332
2022-09-17T08:16:47.000Z,2204
2022-09-17T08:18:03.601Z,2080
2022-09-17T08:19:19.000Z,1988
2022-09-17T08:20:35.000Z,1952
2022-09-17T08:21:51.000Z,1940
2022-09-17T08:23:07.000Z,1968
2022-09-17T08:24:24.000Z,2072
2022-09-17T08:25:40.000Z,2100
2022-09-17T08:26:55.000Z,2076
2022-09-17T08:28:11.000Z,2008
2022-09-17T08:29:27.000Z,1964
2022-09-17T08:30:43.000Z,1900
2022-09-17T08:32:00.000Z,1932
2022-09-17T08:33:16.000Z,2088
2022-09-17T08:34:32.000Z,2236
2022-09-17T08:35:48.000Z,2244
2022-09-17T08:37:04.000Z,2536
2022-09-17T08:38:20.000Z,2636
2022-09-17T08:39:36.000Z,4312
2022-09-17T08:40:53.000Z,3048
2022-09-17T08:42:09.000Z,3640
2022-09-17T08:43:24.000Z,3736
2022-09-17T08:44:40.000Z,3564
2022-09-17T08:45:56.000Z,3332
2022-09-17T08:47:12.000Z,4768
2022-09-17T08:48:28.000Z,3916
2022-09-17T08:49:45.000Z,2908
2022-09-17T08:51:01.000Z,2432
2022-09-17T08:52:17.000Z,2272
2022-09-17T08:53:33.000Z,1924
2022-09-17T08:54:49.000Z,1972
2022-09-17T08:56:05.000Z,2072
2022-09-17T08:57:21.000Z,2012
2022-09-17T08:58:38.000Z,1864
2022-09-17T08:59:53.000Z,1948
2022-09-17T09:01:09.629Z,1892
2022-09-17T09:02:25.000Z,2692
2022-09-17T09:03:41.000Z,1988
2022-09-17T09:04:57.000Z,1856
2022-09-17T09:06:13.000Z,1824
2022-09-17T09:07:30.368Z,2272
2022-09-17T09:08:46.000Z,2476
2022-09-17T09:10:02.000Z,1988
2022-09-17T09:11:18.000Z,2180
2022-09-17T09:12:34.000Z,2416
2022-09-17T09:13:50.000Z,3732
2022-09-17T09:15:07.000Z,2904
2022-09-17T09:16:22.000Z,3084
2022-09-17T09:17:38.555Z,2224
2022-09-17T09:18:54.699Z,3796
2022-09-17T09:20:10.000Z,4276
2022-09-17T09:21:26.000Z,4484
2022-09-17T09:22:43.139Z,4232
2022-09-17T09:23:59.000Z,2404
2022-09-17T09:25:15.000Z,1796
2022-09-17T09:26:31.000Z,1660
2022-09-17T09:27:47.000Z,1644
2022-09-17T09:29:03.000Z,1648
2022-09-17T09:30:19.000Z,1840
2022-09-17T09:31:35.000Z,2052
2022-09-17T09:32:51.000Z,1856
2022-09-17T09:34:07.000Z,2048
2022-09-17T09:35:23.000Z,2688
2022-09-17T09:36:39.000Z,2484
2022-09-17T09:37:55.000Z,3360
2022-09-17T09:39:11.000Z,3468
2022-09-17T09:40:27.000Z,3836
2022-09-17T09:41:44.000Z,3440
2022-09-17T09:43:00.000Z,3128
2022-09-17T09:44:16.652Z,2988
2022-09-17T09:45:32.000Z,3140
2022-09-17T09:46:48.000Z,3684
2022-09-17T09:48:04.000Z,4196
2022-09-17T09:49:20.000Z,4100
2022-09-17T09:50:36.000Z,3788
2022-09-17T09:51:52.000Z,3820
2022-09-17T09:53:08.000Z,4372
2022-09-17T09:54:24.000Z,4700
2022-09-17T09:55:40.000Z,4340
2022-09-17T09:56:56.000Z,3624
2022-09-17T09:58:13.000Z,2780
2022-09-17T09:59:29.000Z,1960
2022-09-17T10:00:45.000Z,1244
2022-09-17T10:02:01.000Z,788
2022-09-17T10:03:17.000Z,824
2022-09-17T10:04:33.000Z,828
2022-09-17T10:05:48.000Z,932
2022-09-17T10:07:05.000Z,904
2022-09-17T10:08:21.467Z,900
2022-09-17T10:09:37.000Z,884
2022-09-17T10:10:53.000Z,852
2022-09-17T10:12:09.000Z,788
2022-09-17T10:13:26.068Z,700
2022-09-17T10:14:41.000Z,640
2022-09-17T10:15:58.000Z,580
2022-09-17T10:17:14.000Z,520
2022-09-17T10:18:30.645Z,484
2022-09-17T10:19:46.000Z,484
2022-09-17T10:21:02.000Z,476
2022-09-17T10:22:17.000Z,504
2022-09-17T10:23:34.000Z,596
2022-09-17T10:24:50.000Z,752
2022-09-17T10:26:06.000Z,864
2022-09-17T10:27:22.000Z,864
2022-09-17T10:28:38.000Z,776
2022-09-17T10:29:54.000Z,744
2022-09-17T10:31:10.000Z,772
2022-09-17T10:32:27.000Z,784
2022-09-17T10:33:43.000Z,756
2022-09-17T10:34:59.565Z,720
2022-09-17T10:36:15.000Z,672
2022-09-17T10:37:31.000Z,640
2022-09-17T10:38:46.000Z,640
2022-09-17T10:40:02.000Z,664
2022-09-17T10:41:19.000Z,700
2022-09-17T10:42:35.481Z,756
2022-09-17T10:43:51.000Z,820
2022-09-17T10:45:07.000Z,864
2022-09-17T10:46:23.000Z,888
2022-09-17T10:47:40.051Z,900
2022-09-17T10:48:55.000Z,892
2022-09-17T10:50:12.000Z,912
2022-09-17T10:51:28.490Z,952
2022-09-17T10:52:44.000Z,960
2022-09-17T10:54:00.000Z,932
2022-09-17T10:55:15.951Z,924
2022-09-17T10:56:31.000Z,904
2022-09-17T10:57:48.000Z,808
2022-09-17T10:59:04.000Z,712
2022-09-17T11:00:20.000Z,720
2022-09-17T11:01:36.000Z,876
2022-09-17T11:02:51.000Z,1004
2022-09-17T11:04:07.997Z,1044
2022-09-17T11:05:23.000Z,1184
2022-09-17T11:06:40.000Z,1312
2022-09-17T11:07:56.000Z,1460
2022-09-17T11:09:12.000Z,1644
2022-09-17T11:10:28.000Z,2040
2022-09-17T11:11:44.000Z,2484
2022-09-17T11:13:00.000Z,2540
2022-09-17T11:14:16.000Z,2352
2022-09-17T11:15:33.000Z,2168
2022-09-17T11:16:49.000Z,2288
2022-09-17T11:18:05.000Z,2436
2022-09-17T11:19:20.000Z,2648
2022-09-17T11:20:36.918Z,3184
2022-09-17T11:21:53.065Z,3460
2022-09-17T11:23:08.000Z,3324
2022-09-17T11:24:25.363Z,3220
2022-09-17T11:25:41.000Z,3300
2022-09-17T11:26:57.000Z,3180
2022-09-17T11:28:13.000Z,3176
2022-09-17T11:29:29.000Z,2972
2022-09-17T11:30:45.000Z,2688
2022-09-17T11:32:02.245Z,2460
2022-09-17T11:33:18.000Z,2300
2022-09-17T11:34:34.000Z,2192
2022-09-17T11:35:49.000Z,2036
2022-09-17T11:37:05.000Z,1872
2022-09-17T11:38:21.000Z,1620
2022-09-17T11:39:37.000Z,1396
2022-09-17T11:40:54.000Z,1252
2022-09-17T11:42:10.000Z,1124
2022-09-17T11:43:26.000Z,956
2022-09-17T11:44:42.730Z,796
2022-09-17T11:45:58.000Z,836
2022-09-17T11:47:14.000Z,724
2022-09-17T11:48:31.167Z,588
2022-09-17T11:49:47.000Z,424
2022-09-17T11:51:03.000Z,316
2022-09-17T11:52:18.000Z,176
2022-09-17T11:53:34.000Z,120
2022-09-17T11:54:50.000Z,116
2022-09-17T11:56:06.000Z,120
2022-09-17T11:57:22.000Z,152
2022-09-17T11:58:39.372Z,356
2022-09-17T11:59:55.000Z,556
2022-09-17T12:01:11.000Z,636
2022-09-17T12:02:27.800Z,496
2022-09-17T12:03:43.000Z,580
2022-09-17T12:04:59.000Z,676
2022-09-17T12:06:16.000Z,724
2022-09-17T12:07:32.000Z,616
2022-09-17T12:08:47.000Z,600
2022-09-17T12:10:03.000Z,560
2022-09-17T12:11:19.000Z,684
2022-09-17T12:12:35.000Z,620
2022-09-17T12:13:51.000Z,524
2022-09-17T12:15:08.288Z,396
2022-09-17T12:16:24.000Z,356
2022-09-17T12:17:40.000Z,308
2022-09-17T12:18:56.000Z,280
2022-09-17T12:20:12.000Z,296
2022-09-17T12:21:28.000Z,332
2022-09-17T12:22:44.000Z,348
2022-09-17T12:24:01.000Z,276
2022-09-17T12:25:16.000Z,240
2022-09-17T12:26:32.000Z,280
2022-09-17T12:27:48.773Z,236
2022-09-17T12:29:04.000Z,200
2022-09-17T12:30:21.069Z,364
2022-09-17T12:31:37.229Z,600
2022-09-17T12:32:53.000Z,536
2022-09-17T12:34:09.000Z,508
2022-09-17T12:35:25.000Z,528
2022-09-17T12:36:41.000Z,452
2022-09-17T12:37:57.951Z,332
2022-09-17T12:39:13.000Z,260
2022-09-17T12:40:30.252Z,208
2022-09-17T12:41:45.405Z,160
2022-09-17T12:43:01.000Z,128
2022-09-17T12:44:17.000Z,124
2022-09-17T12:45:33.842Z,108
2022-09-17T12:46:49.000Z,140
2022-09-17T12:48:05.000Z,156
2022-09-17T12:49:22.000Z,172
2022-09-17T12:50:38.000Z,176
2022-09-17T12:51:54.000Z,296
2022-09-17T12:53:10.000Z,388
2022-09-17T12:54:26.000Z,420
2022-09-17T12:55:42.000Z,376
2022-09-17T12:56:58.000Z,480
2022-09-17T12:58:14.000Z,800
2022-09-17T12:59:30.000Z,868
2022-09-17T13:00:46.000Z,956
2022-09-17T13:02:02.000Z,952
2022-09-17T13:03:18.000Z,744
2022-09-17T13:04:34.000Z,588
2022-09-17T13:05:50.000Z,508
2022-09-17T13:07:07.355Z,504
2022-09-17T13:08:23.000Z,1272
2022-09-17T13:09:39.000Z,2172
2022-09-17T13:10:55.000Z,2616
2022-09-17T13:12:11.000Z,2852
2022-09-17T13:13:27.000Z,2696
2022-09-17T13:14:43.254Z,2000
2022-09-17T13:15:59.000Z,1380
2022-09-17T13:17:15.000Z,1296
2022-09-17T13:18:31.698Z,1576
2022-09-17T13:19:47.000Z,1472
2022-09-17T13:21:03.000Z,1400
2022-09-17T13:22:19.000Z,1372
2022-09-17T13:23:36.000Z,1328
2022-09-17T13:24:52.000Z,1172
2022-09-17T13:26:08.000Z,944
2022-09-17T13:27:24.000Z,732
2022-09-17T13:28:40.886Z,612
2022-09-17T13:29:56.000Z,584
2022-09-17T13:31:11.000Z,616
2022-09-17T13:32:28.000Z,680
2022-09-17T13:33:44.486Z,724
2022-09-17T13:35:00.000Z,864
2022-09-17T13:36:16.000Z,960
2022-09-17T13:37:32.000Z,1000
2022-09-17T13:38:48.000Z,920
2022-09-17T13:40:04.000Z,748
2022-09-17T13:41:21.000Z,608
2022-09-17T13:42:37.000Z,552
2022-09-17T13:43:53.000Z,500
2022-09-17T13:45:09.000Z,456
2022-09-17T13:46:25.000Z,452
2022-09-17T13:47:40.000Z,424
2022-09-17T13:48:57.000Z,404
2022-09-17T13:50:13.000Z,336
2022-09-17T13:51:29.536Z,248
2022-09-17T13:52:45.000Z,232
2022-09-17T13:54:01.000Z,240
2022-09-17T13:55:17.000Z,260
2022-09-17T13:56:33.000Z,280
2022-09-17T13:57:50.267Z,300
2022-09-17T13:59:06.000Z,256
2022-09-17T14:00:22.552Z,300
2022-09-17T14:01:38.000Z,416
2022-09-17T14:02:54.000Z,448
2022-09-17T14:04:09.000Z,376
2022-09-17T14:05:25.000Z,316
2022-09-17T14:06:42.302Z,316
2022-09-17T14:07:58.444Z,388
2022-09-17T14:09:14.000Z,424
2022-09-17T14:10:30.000Z,448
2022-09-17T14:11:46.000Z,560
2022-09-17T14:13:02.000Z,644
2022-09-17T14:14:18.000Z,712
2022-09-17T14:15:35.000Z,712
2022-09-17T14:16:51.000Z,824
2022-09-17T14:18:07.000Z,760
2022-09-17T14:19:23.000Z,700
2022-09-17T14:20:38.000Z,704
2022-09-17T14:21:54.000Z,696
2022-09-17T14:23:10.000Z,768
2022-09-17T14:24:27.000Z,804
2022-09-17T14:25:43.000Z,832
2022-09-17T14:26:59.000Z,864
2022-09-17T14:28:15.788Z,1140
2022-09-17T14:29:31.000Z,1244
2022-09-17T14:30:48.078Z,1312
2022-09-17T14:32:04.220Z,1480
2022-09-17T14:33:20.365Z,1820
2022-09-17T14:34:36.000Z,2088
2022-09-17T14:35:52.000Z,2260
2022-09-17T14:37:07.000Z,2376
2022-09-17T14:38:23.000Z,2344
2022-09-17T14:39:39.000Z,2380
2022-09-17T14:40:56.000Z,2472
2022-09-17T14:42:12.000Z,2672
2022-09-17T14:43:28.552Z,2952
2022-09-17T14:44:44.000Z,3196
2022-09-17T14:46:00.000Z,3440
2022-09-17T14:47:16.000Z,3572
2022-09-17T14:48:33.127Z,3524
2022-09-17T14:49:49.271Z,3444
2022-09-17T14:51:05.425Z,3220
2022-09-17T14:52:21.568Z,3032
2022-09-17T14:53:36.000Z,3004
2022-09-17T14:54:52.883Z,3084
2022-09-17T14:56:09.018Z,2992
2022-09-17T14:57:25.164Z,2692
2022-09-17T14:58:41.307Z,2608
2022-09-17T14:59:57.000Z,2600
2022-09-17T15:01:13.000Z,2492
2022-09-17T15:02:29.000Z,2296
2022-09-17T15:03:45.892Z,2044
2022-09-17T15:05:01.000Z,1752
2022-09-17T15:06:17.000Z,1500
2022-09-17T15:07:34.000Z,1308
2022-09-17T15:08:50.000Z,1172
2022-09-17T15:10:05.000Z,1092
2022-09-17T15:11:21.786Z,1024
2022-09-17T15:12:37.926Z,920
2022-09-17T15:13:53.000Z,860
2022-09-17T15:15:10.222Z,912
2022-09-17T15:16:26.000Z,1024
2022-09-17T15:17:41.000Z,1160
2022-09-17T15:18:57.000Z,1196
2022-09-17T15:20:13.000Z,1172
2022-09-17T15:21:29.000Z,1156
2022-09-17T15:22:45.000Z,1124
2022-09-17T15:24:02.000Z,1140
2022-09-17T15:25:18.000Z,1168
2022-09-17T15:26:34.554Z,1196
2022-09-17T15:27:50.000Z,1204
2022-09-17T15:29:06.000Z,1196
2022-09-17T15:30:22.000Z,1220
2022-09-17T15:31:38.000Z,1232
2022-09-17T15:32:55.000Z,1220
2022-09-17T15:34:10.452Z,1212
2022-09-17T15:35:26.588Z,1188
2022-09-17T15:36:42.000Z,1164
2022-09-17T15:37:58.000Z,1136
2022-09-17T15:39:14.000Z,1096
2022-09-17T15:40:30.000Z,1052
2022-09-17T15:41:47.000Z,1060
2022-09-17T15:43:03.000Z,1116
2022-09-17T15:44:19.000Z,1216
2022-09-17T15:45:35.000Z,1324
2022-09-17T15:46:51.893Z,1400
2022-09-17T15:48:08.034Z,1432
2022-09-17T15:49:23.000Z,1448
2022-09-17T15:50:39.355Z,1432
2022-09-17T15:51:55.000Z,1384
2022-09-17T15:53:11.000Z,1320
2022-09-17T15:54:27.779Z,1216
2022-09-17T15:55:43.000Z,1104
2022-09-17T15:56:59.000Z,1008
2022-09-17T15:58:15.000Z,932
2022-09-17T15:59:32.384Z,860
2022-09-17T16:00:48.515Z,800
2022-09-17T16:02:04.654Z,748
2022-09-17T16:03:20.797Z,712
2022-09-17T16:04:36.000Z,692
2022-09-17T16:05:52.000Z,664
2022-09-17T16:07:08.259Z,644
2022-09-17T16:08:24.000Z,616
2022-09-17T16:09:40.000Z,580
2022-09-17T16:10:56.690Z,548
2022-09-17T16:12:12.000Z,520
2022-09-17T16:13:28.000Z,500
2022-09-17T16:14:44.000Z,496
2022-09-17T16:16:01.272Z,492
2022-09-17T16:17:17.000Z,484
2022-09-17T16:18:33.000Z,476
2022-09-17T16:19:49.000Z,476
2022-09-17T16:21:05.000Z,464
2022-09-17T16:22:21.000Z,448
2022-09-17T16:23:37.162Z,444
2022-09-17T16:24:53.000Z,452
2022-09-17T16:26:09.464Z,468
2022-09-17T16:27:25.000Z,464
2022-09-17T16:28:41.000Z,448
2022-09-17T16:29:57.890Z,416
2022-09-17T16:31:13.000Z,384
2022-09-17T16:32:29.000Z,360
2022-09-17T16:33:46.000Z,336
2022-09-17T16:35:02.000Z,320
2022-09-17T16:36:18.000Z,300
2022-09-17T16:37:34.000Z,296
2022-09-17T16:38:50.000Z,292
2022-09-17T16:40:05.000Z,296
2022-09-17T16:41:22.215Z,304
2022-09-17T16:42:38.000Z,316
2022-09-17T16:43:54.000Z,328
2022-09-17T16:45:10.000Z,328
2022-09-17T16:46:26.800Z,308
2022-09-17T16:47:42.000Z,296
2022-09-17T16:48:59.084Z,288
2022-09-17T16:50:15.231Z,296
2022-09-17T16:51:31.000Z,316
2022-09-17T16:52:47.000Z,316
2022-09-17T16:54:03.670Z,304
2022-09-17T16:55:19.000Z,288
2022-09-17T16:56:34.000Z,272
2022-09-17T16:57:50.000Z,264
2022-09-17T16:59:07.265Z,244
2022-09-17T17:00:23.000Z,232
2022-09-17T17:01:39.000Z,216
2022-09-17T17:02:55.705Z,204
2022-09-17T17:04:11.000Z,192
2022-09-17T17:05:27.000Z,180
2022-09-17T17:06:43.000Z,172
2022-09-17T17:08:00.000Z,168
2022-09-17T17:09:16.000Z,156
2022-09-17T17:10:32.000Z,148
2022-09-17T17:11:48.723Z,136
2022-09-17T17:13:03.000Z,124
2022-09-17T17:14:19.000Z,112
2022-09-17T17:15:35.000Z,108
2022-09-17T17:16:52.000Z,100
2022-09-17T17:18:08.000Z,96
2022-09-17T17:19:24.000Z,92
2022-09-17T17:20:40.756Z,84
2022-09-17T17:21:56.000Z,80
2022-09-17T17:23:13.065Z,72
2022-09-17T17:24:28.000Z,68
2022-09-17T17:25:45.000Z,64
2022-09-17T17:27:01.000Z,60
2022-09-17T17:28:17.000Z,56
2022-09-17T17:29:32.000Z,52
2022-09-17T17:30:48.000Z,44
2022-09-17T17:32:04.000Z,40
2022-09-17T17:33:20.000Z,40
2022-09-17T17:34:37.000Z,32
2022-09-17T17:35:53.000Z,28
2022-09-17T17:37:09.660Z,24